Terminal Aerodrome Forecast
Issued by NWS Riverton, WY

Home | Current Version | Previous Version | Text Only | Print | Product List | Glossary On
Versions: 1 2 3 4 5 6 7 8 9 10 11 12 13
303
FTUS45 KRIW 141720
TAFRIW
TAF
KRIW 141720Z 1418/1518 30008KT P6SM SCT110 BKN200
     FM142200 30015G23KT P6SM SCT090 BKN150
     FM150400 30013KT P6SM SCT080 BKN130=

USA.gov is the U.S. government's official web portal to all federal, state and local government web resources and services.